createdAt,value
2017-10-11T00:00:57.904Z,1010.17
2017-10-11T00:02:19.487Z,1010.18
2017-10-11T00:02:58.755Z,1010.14
2017-10-11T00:03:59.199Z,1010.19
2017-10-11T00:04:59.633Z,1010.16
2017-10-11T00:06:00.049Z,1010.17
2017-10-11T00:07:00.479Z,1010.23
2017-10-11T00:08:22.076Z,1010.25
2017-10-11T00:09:01.353Z,1010.17
2017-10-11T00:10:01.776Z,1010.21
2017-10-11T00:11:02.208Z,1010.21
2017-10-11T00:12:02.674Z,1010.23
2017-10-11T00:13:03.072Z,1010.27
2017-10-11T00:14:24.660Z,1010.20
2017-10-11T00:15:03.935Z,1010.29
2017-10-11T00:16:04.363Z,1010.21
2017-10-11T00:17:04.804Z,1010.22
2017-10-11T00:18:05.229Z,1010.24
2017-10-11T00:19:05.661Z,1010.23
2017-10-11T00:20:27.251Z,1010.24
2017-10-11T00:21:06.536Z,1010.24
2017-10-11T00:22:06.953Z,1010.19
2017-10-11T00:23:07.383Z,1010.20
2017-10-11T00:24:07.824Z,1010.20
2017-10-11T00:25:08.248Z,1010.22
2017-10-11T00:26:29.835Z,1010.19
2017-10-11T00:27:09.106Z,1010.21
2017-10-11T00:28:09.550Z,1010.26
2017-10-11T00:29:09.980Z,1010.29
2017-10-11T00:30:10.402Z,1010.23
2017-10-11T00:31:10.833Z,1010.23
2017-10-11T00:32:32.423Z,1010.19
2017-10-11T00:33:11.700Z,1010.16
2017-10-11T00:34:12.128Z,1010.18
2017-10-11T00:35:12.571Z,1010.18
2017-10-11T00:36:12.992Z,1010.16
2017-10-11T00:37:13.419Z,1010.17
2017-10-11T00:38:35.034Z,1010.14
2017-10-11T00:39:14.282Z,1010.15
2017-10-11T00:40:14.721Z,1010.14
2017-10-11T00:41:15.147Z,1010.13
2017-10-11T00:42:15.586Z,1010.16
2017-10-11T00:43:16.016Z,1010.12
2017-10-11T00:44:37.608Z,1010.16
2017-10-11T00:45:16.868Z,1010.17
2017-10-11T00:46:17.306Z,1010.21
2017-10-11T00:47:17.736Z,1010.17
2017-10-11T00:48:18.184Z,1010.15
2017-10-11T00:49:18.614Z,1010.18
2017-10-11T00:50:40.193Z,1010.12
2017-10-11T00:51:19.477Z,1010.14
2017-10-11T00:52:19.899Z,1010.11
2017-10-11T00:53:20.323Z,1010.15
2017-10-11T00:54:20.756Z,1010.05
2017-10-11T00:55:21.197Z,1010.11
2017-10-11T00:56:42.778Z,1010.11
2017-10-11T00:57:22.052Z,1010.13
2017-10-11T00:58:22.477Z,1010.11
2017-10-11T00:59:22.918Z,1010.11
2017-10-11T01:00:23.364Z,1010.09
2017-10-11T01:01:23.773Z,1010.10
2017-10-11T01:02:45.365Z,1010.17
2017-10-11T01:03:24.649Z,1010.12
2017-10-11T01:04:25.091Z,1010.12
2017-10-11T01:05:25.501Z,1010.18
2017-10-11T01:06:25.937Z,1010.13
2017-10-11T01:07:26.375Z,1010.13
2017-10-11T01:08:47.955Z,1010.13
2017-10-11T01:09:27.241Z,1010.13
2017-10-11T01:10:27.657Z,1010.18
2017-10-11T01:11:28.092Z,1010.20
2017-10-11T01:12:28.525Z,1010.19
2017-10-11T01:13:28.955Z,1010.19
2017-10-11T01:14:50.555Z,1010.16
2017-10-11T01:15:29.819Z,1010.15
2017-10-11T01:16:30.260Z,1010.19
2017-10-11T01:17:30.680Z,1010.19
2017-10-11T01:18:31.114Z,1010.21
2017-10-11T01:19:31.544Z,1010.18
2017-10-11T01:20:53.136Z,1010.18
2017-10-11T01:21:32.400Z,1010.22
2017-10-11T01:22:32.844Z,1010.20
2017-10-11T01:23:33.272Z,1010.16
2017-10-11T01:24:33.700Z,1010.21
2017-10-11T01:25:34.128Z,1010.24
2017-10-11T01:26:55.725Z,1010.18
2017-10-11T01:27:34.998Z,1010.18
2017-10-11T01:28:35.424Z,1010.19
2017-10-11T01:29:35.858Z,1010.23
2017-10-11T01:30:36.289Z,1010.26
2017-10-11T01:31:36.738Z,1010.19
2017-10-11T01:32:58.315Z,1010.21
2017-10-11T01:33:37.583Z,1010.22
2017-10-11T01:34:38.021Z,1010.20
2017-10-11T01:35:38.448Z,1010.16
2017-10-11T01:36:38.882Z,1010.18
2017-10-11T01:37:39.309Z,1010.20
2017-10-11T01:39:00.902Z,1010.16
2017-10-11T01:39:40.175Z,1010.20
2017-10-11T01:40:40.604Z,1010.18
2017-10-11T01:41:41.045Z,1010.18
2017-10-11T01:42:41.466Z,1010.19
2017-10-11T01:43:41.899Z,1010.19
2017-10-11T01:45:03.490Z,1010.22
2017-10-11T01:45:42.761Z,1010.20
2017-10-11T01:46:43.198Z,1010.12
2017-10-11T01:47:43.630Z,1010.16
2017-10-11T01:48:44.057Z,1010.13
2017-10-11T01:49:44.493Z,1010.17
2017-10-11T01:51:06.082Z,1010.21
2017-10-11T01:51:45.350Z,1010.20
2017-10-11T01:52:45.784Z,1010.21
2017-10-11T01:53:46.211Z,1010.16
2017-10-11T01:54:46.647Z,1010.11
2017-10-11T01:55:47.078Z,1010.09
2017-10-11T01:57:08.670Z,1010.14
2017-10-11T01:57:47.942Z,1010.14
2017-10-11T01:58:48.378Z,1010.09
2017-10-11T01:59:48.802Z,1010.13
2017-10-11T02:00:49.241Z,1010.13
2017-10-11T02:01:49.663Z,1010.11
2017-10-11T02:03:11.273Z,1010.19
2017-10-11T02:03:50.528Z,1010.25
2017-10-11T02:04:50.968Z,1010.23
2017-10-11T02:05:51.396Z,1010.21
2017-10-11T02:06:51.826Z,1010.18
2017-10-11T02:07:52.253Z,1010.14
2017-10-11T02:09:13.849Z,1010.11
2017-10-11T02:09:53.122Z,1010.10
2017-10-11T02:10:53.559Z,1010.25
2017-10-11T02:11:53.984Z,1010.16
2017-10-11T02:12:54.413Z,1010.15
2017-10-11T02:13:54.845Z,1010.17
2017-10-11T02:15:16.452Z,1010.18
2017-10-11T02:15:55.729Z,1010.15
2017-10-11T02:16:56.143Z,1010.12
2017-10-11T02:17:56.576Z,1010.13
2017-10-11T02:18:57.011Z,1010.20
2017-10-11T02:19:57.434Z,1010.16
2017-10-11T02:21:19.053Z,1010.17
2017-10-11T02:21:58.294Z,1010.16
2017-10-11T02:22:58.758Z,1010.12
2017-10-11T02:23:59.164Z,1010.11
2017-10-11T02:24:59.602Z,1010.13
2017-10-11T02:26:00.024Z,1010.13
2017-10-11T02:27:21.613Z,1010.16
2017-10-11T02:28:00.884Z,1010.19
2017-10-11T02:29:01.337Z,1010.18
2017-10-11T02:30:01.749Z,1010.16
2017-10-11T02:31:02.182Z,1010.11
2017-10-11T02:32:02.616Z,1010.22
2017-10-11T02:33:24.205Z,1010.23
2017-10-11T02:34:03.484Z,1010.17
2017-10-11T02:35:03.906Z,1010.15
2017-10-11T02:36:04.397Z,1010.18
2017-10-11T02:37:04.780Z,1010.21
2017-10-11T02:38:05.204Z,1010.18
2017-10-11T02:39:26.793Z,1010.21
2017-10-11T02:40:06.063Z,1010.20
2017-10-11T02:41:06.496Z,1010.15
2017-10-11T02:42:06.934Z,1010.22
2017-10-11T02:43:07.383Z,1010.18
2017-10-11T02:44:07.803Z,1010.08
2017-10-11T02:45:29.384Z,1010.11
2017-10-11T02:46:08.659Z,1010.17
2017-10-11T02:47:09.090Z,1010.17
2017-10-11T02:48:09.521Z,1010.14
2017-10-11T02:49:09.954Z,1010.16
2017-10-11T02:50:10.383Z,1010.16
2017-10-11T02:51:31.970Z,1010.16
2017-10-11T02:52:11.246Z,1010.14
2017-10-11T02:53:11.681Z,1010.13
2017-10-11T02:54:12.109Z,1010.19
2017-10-11T02:55:12.543Z,1010.13
2017-10-11T02:56:12.972Z,1010.10
2017-10-11T02:57:34.562Z,1010.16
2017-10-11T02:58:13.833Z,1010.11
2017-10-11T02:59:14.269Z,1010.15
2017-10-11T03:00:14.701Z,1010.13
2017-10-11T03:01:15.130Z,1010.15
2017-10-11T03:02:15.566Z,1010.21
2017-10-11T03:03:37.148Z,1010.17
2017-10-11T03:04:16.423Z,1010.19
2017-10-11T03:05:16.859Z,1010.22
2017-10-11T03:06:17.289Z,1010.22
2017-10-11T03:07:17.717Z,1010.14
2017-10-11T03:08:18.145Z,1010.13
2017-10-11T03:09:39.738Z,1010.13
2017-10-11T03:10:19.017Z,1010.19
2017-10-11T03:11:19.443Z,1010.19
2017-10-11T03:12:19.872Z,1010.20
2017-10-11T03:13:20.318Z,1010.14
2017-10-11T03:14:20.737Z,1010.16
2017-10-11T03:15:42.339Z,1010.16
2017-10-11T03:16:21.624Z,1010.17
2017-10-11T03:17:22.031Z,1010.13
2017-10-11T03:18:22.464Z,1010.16
2017-10-11T03:19:22.895Z,1010.18
2017-10-11T03:20:23.341Z,1010.21
2017-10-11T03:21:44.923Z,1010.18
2017-10-11T03:22:24.192Z,1010.18
2017-10-11T03:23:24.626Z,1010.08
2017-10-11T03:24:25.052Z,1010.07
2017-10-11T03:25:25.483Z,1010.05
2017-10-11T03:26:25.920Z,1010.10
2017-10-11T03:27:47.510Z,1010.07
2017-10-11T03:28:26.780Z,1010.11
2017-10-11T03:29:27.212Z,1010.14
2017-10-11T03:30:27.640Z,1010.11
2017-10-11T03:31:28.078Z,1010.09
2017-10-11T03:32:28.507Z,1010.09
2017-10-11T03:33:50.101Z,1010.13
2017-10-11T03:34:29.367Z,1010.11
2017-10-11T03:35:29.807Z,1010.09
2017-10-11T03:36:30.232Z,1010.12
2017-10-11T03:37:30.692Z,1010.11
2017-10-11T03:38:31.092Z,1010.08
2017-10-11T03:39:52.697Z,1010.18
2017-10-11T03:40:31.960Z,1010.14
2017-10-11T03:41:32.393Z,1010.12
2017-10-11T03:42:32.823Z,1010.13
2017-10-11T03:43:33.255Z,1010.12
2017-10-11T03:44:33.686Z,1010.13
2017-10-11T03:45:55.283Z,1010.11
2017-10-11T03:46:34.554Z,1010.10
2017-10-11T03:47:34.982Z,1010.16
2017-10-11T03:48:35.414Z,1010.11
2017-10-11T03:49:35.845Z,1010.11
2017-10-11T03:50:36.434Z,1010.09
2017-10-11T03:51:57.873Z,1010.07
2017-10-11T03:52:37.142Z,1010.11
2017-10-11T03:53:37.579Z,1010.10
2017-10-11T03:54:38.014Z,1010.05
2017-10-11T03:55:38.438Z,1010.07
2017-10-11T03:56:38.880Z,1010.11
2017-10-11T03:58:00.473Z,1010.11
2017-10-11T03:58:39.733Z,1010.11
2017-10-11T03:59:40.173Z,1010.09
2017-10-11T04:00:40.605Z,1010.05
2017-10-11T04:01:41.156Z,1010.12
2017-10-11T04:02:41.469Z,1010.11
2017-10-11T04:04:03.052Z,1010.12
2017-10-11T04:04:42.327Z,1010.13
2017-10-11T04:05:42.761Z,1010.12
2017-10-11T04:06:43.188Z,1010.11
2017-10-11T04:07:43.622Z,1010.09
2017-10-11T04:08:44.056Z,1010.10
2017-10-11T04:10:05.651Z,1010.17
2017-10-11T04:10:44.916Z,1010.10
2017-10-11T04:11:45.381Z,1010.10
2017-10-11T04:12:45.782Z,1010.17
2017-10-11T04:13:46.215Z,1010.13
2017-10-11T04:14:46.644Z,1010.10
2017-10-11T04:16:08.248Z,1010.11
2017-10-11T04:16:47.512Z,1010.12
2017-10-11T04:17:47.946Z,1010.11
2017-10-11T04:18:48.379Z,1010.16
2017-10-11T04:19:48.805Z,1010.17
2017-10-11T04:20:49.237Z,1010.12
2017-10-11T04:22:10.872Z,1010.15
2017-10-11T04:22:50.113Z,1010.14
2017-10-11T04:23:50.535Z,1010.15
2017-10-11T04:24:50.986Z,1010.13
2017-10-11T04:25:51.453Z,1010.12
2017-10-11T04:26:51.836Z,1010.09
2017-10-11T04:28:13.423Z,1010.14
2017-10-11T04:28:52.693Z,1010.10
2017-10-11T04:29:53.126Z,1010.12
2017-10-11T04:30:53.566Z,1010.05
2017-10-11T04:31:54.015Z,1010.06
2017-10-11T04:32:54.429Z,1010.09
2017-10-11T04:34:16.016Z,1010.10
2017-10-11T04:34:55.287Z,1010.07
2017-10-11T04:35:55.734Z,1010.12
2017-10-11T04:36:56.148Z,1010.09
2017-10-11T04:37:56.586Z,1010.09
2017-10-11T04:38:57.015Z,1010.06
2017-10-11T04:40:18.602Z,1010.12
2017-10-11T04:40:57.879Z,1010.11
2017-10-11T04:41:58.309Z,1010.10
2017-10-11T04:42:58.741Z,1010.09
2017-10-11T04:43:59.171Z,1010.09
2017-10-11T04:44:59.612Z,1010.08
2017-10-11T04:46:21.200Z,1010.08
2017-10-11T04:47:00.473Z,1010.07
2017-10-11T04:48:00.901Z,1010.06
2017-10-11T04:49:01.327Z,1010.06
2017-10-11T04:50:01.759Z,1010.09
2017-10-11T04:51:02.206Z,1010.09
2017-10-11T04:52:23.815Z,1010.08
2017-10-11T04:53:03.063Z,1010.09
2017-10-11T04:54:03.492Z,1010.10
2017-10-11T04:55:03.925Z,1010.11
2017-10-11T04:56:04.369Z,1010.11
2017-10-11T04:57:04.786Z,1010.14
2017-10-11T04:58:26.375Z,1010.13
2017-10-11T04:59:05.651Z,1010.09
2017-10-11T05:00:06.076Z,1010.12
2017-10-11T05:01:06.521Z,1010.15
2017-10-11T05:02:06.943Z,1010.11
2017-10-11T05:03:07.384Z,1010.17
2017-10-11T05:04:28.970Z,1010.14
2017-10-11T05:05:08.238Z,1010.12
2017-10-11T05:06:08.677Z,1010.12
2017-10-11T05:07:09.103Z,1010.16
2017-10-11T05:08:09.536Z,1010.15
2017-10-11T05:09:09.978Z,1010.15
2017-10-11T05:10:31.564Z,1010.14
2017-10-11T05:11:10.835Z,1010.17
2017-10-11T05:12:11.272Z,1010.17
2017-10-11T05:13:11.701Z,1010.19
2017-10-11T05:14:12.126Z,1010.22
2017-10-11T05:15:12.560Z,1010.20
2017-10-11T05:16:34.153Z,1010.22
2017-10-11T05:17:13.423Z,1010.24
2017-10-11T05:18:13.866Z,1010.20
2017-10-11T05:19:14.296Z,1010.22
2017-10-11T05:20:14.719Z,1010.22
2017-10-11T05:21:15.151Z,1010.20
2017-10-11T05:22:36.748Z,1010.27
2017-10-11T05:23:16.019Z,1010.23
2017-10-11T05:24:16.450Z,1010.22
2017-10-11T05:25:16.884Z,1010.21
2017-10-11T05:26:17.308Z,1010.26
2017-10-11T05:27:17.743Z,1010.26
2017-10-11T05:28:39.335Z,1010.27
2017-10-11T05:29:18.605Z,1010.20
2017-10-11T05:30:19.039Z,1010.22
2017-10-11T05:31:19.469Z,1010.26
2017-10-11T05:32:19.909Z,1010.31
2017-10-11T05:33:20.344Z,1010.37
2017-10-11T05:34:41.923Z,1010.36
2017-10-11T05:35:21.211Z,1010.33
2017-10-11T05:36:21.629Z,1010.39
2017-10-11T05:37:22.077Z,1010.42
2017-10-11T05:38:22.496Z,1010.35
2017-10-11T05:39:22.956Z,1010.39
2017-10-11T05:40:44.524Z,1010.33
2017-10-11T05:41:23.788Z,1010.37
2017-10-11T05:42:24.227Z,1010.32
2017-10-11T05:43:24.653Z,1010.32
2017-10-11T05:44:25.091Z,1010.34
2017-10-11T05:45:25.518Z,1010.33
2017-10-11T05:46:47.108Z,1010.40
2017-10-11T05:47:26.380Z,1010.38
2017-10-11T05:48:26.810Z,1010.36
2017-10-11T05:49:27.240Z,1010.37
2017-10-11T05:50:27.692Z,1010.36
2017-10-11T05:51:28.111Z,1010.37
2017-10-11T05:52:49.697Z,1010.37
2017-10-11T05:53:28.972Z,1010.38
2017-10-11T05:54:29.401Z,1010.35
2017-10-11T05:55:29.835Z,1010.37
2017-10-11T05:56:30.273Z,1010.37
2017-10-11T05:57:30.702Z,1010.41
2017-10-11T05:58:52.294Z,1010.41
2017-10-11T05:59:31.583Z,1010.40
2017-10-11T06:00:32.003Z,1010.37
2017-10-11T06:01:32.427Z,1010.35
2017-10-11T06:02:32.859Z,1010.38
2017-10-11T06:03:33.286Z,1010.34
2017-10-11T06:04:54.942Z,1010.35
2017-10-11T06:05:34.159Z,1010.39
2017-10-11T06:06:34.584Z,1010.36
2017-10-11T06:07:35.035Z,1010.41
2017-10-11T06:08:35.443Z,1010.38
2017-10-11T06:09:35.896Z,1010.41
2017-10-11T06:10:57.474Z,1010.41
2017-10-11T06:11:36.766Z,1010.42
2017-10-11T06:12:37.177Z,1010.38
2017-10-11T06:13:37.613Z,1010.40
2017-10-11T06:14:38.044Z,1010.43
2017-10-11T06:15:38.471Z,1010.42
2017-10-11T06:17:00.070Z,1010.42
2017-10-11T06:17:39.338Z,1010.42
2017-10-11T06:18:39.778Z,1010.39
2017-10-11T06:19:40.200Z,1010.43
2017-10-11T06:20:40.650Z,1010.46
2017-10-11T06:21:41.098Z,1010.45
2017-10-11T06:23:02.668Z,1010.41
2017-10-11T06:23:41.927Z,1010.40
2017-10-11T06:24:42.397Z,1010.44
2017-10-11T06:25:42.796Z,1010.42
2017-10-11T06:28:23.636Z,1010.43
2017-10-11T06:29:24.052Z,1010.46
2017-10-11T06:31:21.395Z,1010.44
2017-10-11T06:32:21.810Z,1010.52
2017-10-11T06:34:16.463Z,1010.46
2017-10-11T06:35:16.862Z,1010.49
2017-10-11T06:37:11.468Z,1010.47
2017-10-11T06:38:12.038Z,1010.49
2017-10-11T06:40:19.304Z,1010.53
2017-10-11T06:41:19.725Z,1010.53
2017-10-11T06:43:14.289Z,1010.55
2017-10-11T06:44:14.727Z,1010.54
2017-10-11T06:46:09.301Z,1010.52
2017-10-11T06:47:09.720Z,1010.54
2017-10-11T06:49:04.277Z,1010.54
2017-10-11T06:50:04.714Z,1010.51
2017-10-11T06:51:59.319Z,1010.56
2017-10-11T06:52:59.748Z,1010.60
2017-10-11T06:54:57.701Z,1010.63
2017-10-11T06:55:58.142Z,1010.65
2017-10-11T06:57:52.714Z,1010.63
2017-10-11T06:58:53.133Z,1010.65
2017-10-11T07:00:47.718Z,1010.65
2017-10-11T07:01:48.134Z,1010.66
2017-10-11T07:03:42.921Z,1010.60
2017-10-11T07:04:43.355Z,1010.63
2017-10-11T07:06:37.940Z,1010.66
2017-10-11T07:07:38.364Z,1010.65
2017-10-11T07:09:32.924Z,1010.64
2017-10-11T07:10:33.358Z,1010.63
2017-10-11T07:12:27.939Z,1010.64
2017-10-11T07:13:28.362Z,1010.66
2017-10-11T07:14:28.794Z,1010.57
2017-10-11T07:15:29.232Z,1010.63
2017-10-11T07:16:29.660Z,1010.65
2017-10-11T07:17:30.096Z,1010.68
2017-10-11T07:18:30.532Z,1010.67
2017-10-11T07:19:30.962Z,1010.66
2017-10-11T07:20:31.396Z,1010.70
2017-10-11T07:21:31.828Z,1010.69
2017-10-11T07:22:32.267Z,1010.66
2017-10-11T07:23:32.695Z,1010.64
2017-10-11T07:24:33.129Z,1010.70
2017-10-11T07:25:33.562Z,1010.70
2017-10-11T07:26:33.994Z,1010.72
2017-10-11T07:27:34.448Z,1010.64
2017-10-11T07:28:34.861Z,1010.68
2017-10-11T07:29:35.295Z,1010.71
2017-10-11T07:30:35.730Z,1010.74
2017-10-11T07:31:36.171Z,1010.73
2017-10-11T07:32:36.595Z,1010.67
2017-10-11T07:33:37.058Z,1010.71
2017-10-11T07:34:37.470Z,1010.65
2017-10-11T07:35:37.894Z,1010.71
2017-10-11T07:36:38.345Z,1010.71
2017-10-11T07:37:38.764Z,1010.67
2017-10-11T07:38:39.205Z,1010.75
2017-10-11T07:39:39.641Z,1010.72
2017-10-11T07:40:40.077Z,1010.74
2017-10-11T07:41:40.522Z,1010.70
2017-10-11T07:42:40.952Z,1010.75
2017-10-11T07:43:41.372Z,1010.72
2017-10-11T07:44:41.794Z,1010.82
2017-10-11T07:45:42.226Z,1010.77
2017-10-11T07:46:42.669Z,1010.73
2017-10-11T07:47:43.103Z,1010.79
2017-10-11T07:48:43.535Z,1010.78
2017-10-11T07:49:43.960Z,1010.80
2017-10-11T07:50:44.391Z,1010.78
2017-10-11T07:51:44.828Z,1010.83
2017-10-11T07:52:45.263Z,1010.80
2017-10-11T07:53:45.703Z,1010.79
2017-10-11T07:54:46.133Z,1010.77
2017-10-11T07:55:46.563Z,1010.79
2017-10-11T07:56:46.993Z,1010.78
2017-10-11T07:57:47.433Z,1010.78
2017-10-11T07:58:47.862Z,1010.77
2017-10-11T07:59:48.294Z,1010.80
2017-10-11T08:00:48.728Z,1010.87
2017-10-11T08:01:49.174Z,1010.80
2017-10-11T08:02:49.596Z,1010.87
2017-10-11T08:03:50.045Z,1010.80
2017-10-11T08:04:50.467Z,1010.81
2017-10-11T08:05:50.908Z,1010.80
2017-10-11T08:06:51.334Z,1010.87
2017-10-11T08:07:51.776Z,1010.89
2017-10-11T08:08:52.203Z,1010.89
2017-10-11T08:09:52.644Z,1010.91
2017-10-11T08:10:53.072Z,1010.85
2017-10-11T08:11:53.508Z,1010.82
2017-10-11T08:12:53.942Z,1010.84
2017-10-11T08:13:54.393Z,1010.82
2017-10-11T08:14:54.818Z,1010.87
2017-10-11T08:15:55.248Z,1010.88
2017-10-11T08:16:55.677Z,1010.87
2017-10-11T08:17:56.113Z,1010.87
2017-10-11T08:18:56.550Z,1010.89
2017-10-11T08:19:56.983Z,1010.91
2017-10-11T08:20:57.443Z,1010.92
2017-10-11T08:21:57.853Z,1010.90
2017-10-11T08:22:58.287Z,1010.89
2017-10-11T08:23:58.723Z,1010.93
2017-10-11T08:24:59.174Z,1010.91
2017-10-11T08:25:59.590Z,1010.92
2017-10-11T08:27:00.023Z,1010.93
2017-10-11T08:28:00.463Z,1011.00
2017-10-11T08:29:00.895Z,1010.97
2017-10-11T08:30:01.327Z,1010.97
2017-10-11T08:31:01.780Z,1010.93
2017-10-11T08:32:02.218Z,1010.95
2017-10-11T08:33:02.622Z,1010.97
2017-10-11T08:34:03.093Z,1010.93
2017-10-11T08:35:03.504Z,1010.97
2017-10-11T08:36:58.091Z,1010.93
2017-10-11T08:37:58.511Z,1010.94
2017-10-11T08:39:53.126Z,1010.95
2017-10-11T08:40:53.548Z,1010.91
2017-10-11T08:42:48.121Z,1011.02
2017-10-11T08:43:48.565Z,1011.04
2017-10-11T08:45:43.161Z,1010.97
2017-10-11T08:46:43.584Z,1010.94
2017-10-11T08:48:38.149Z,1010.98
2017-10-11T08:49:38.591Z,1010.88
2017-10-11T08:51:37.845Z,1010.97
2017-10-11T08:52:38.262Z,1010.97
2017-10-11T08:54:38.206Z,1010.94
2017-10-11T08:55:38.642Z,1010.89
2017-10-11T08:57:34.649Z,1010.88
2017-10-11T09:00:08.191Z,1010.95
2017-10-11T09:01:08.649Z,1010.88
2017-10-11T09:02:09.078Z,1010.87
2017-10-11T09:03:09.517Z,1010.90
2017-10-11T09:04:09.961Z,1010.92
2017-10-11T09:05:10.399Z,1010.93
2017-10-11T09:06:10.841Z,1010.95
2017-10-11T09:07:11.289Z,1010.93
2017-10-11T09:08:11.728Z,1010.93
2017-10-11T09:09:12.168Z,1010.98
2017-10-11T09:10:12.615Z,1010.91
2017-10-11T09:11:13.054Z,1011.03
2017-10-11T09:12:13.494Z,1010.96
2017-10-11T09:13:13.935Z,1010.99
2017-10-11T09:14:14.375Z,1010.97
2017-10-11T09:15:14.819Z,1010.97
2017-10-11T09:16:15.261Z,1010.98
2017-10-11T09:17:15.705Z,1010.91
2017-10-11T09:18:16.144Z,1010.92
2017-10-11T09:19:16.579Z,1011.06
2017-10-11T09:20:17.031Z,1010.93
2017-10-11T09:21:17.457Z,1011.00
2017-10-11T09:22:17.892Z,1010.99
2017-10-11T09:23:18.335Z,1011.07
2017-10-11T09:24:18.769Z,1011.04
2017-10-11T09:25:19.212Z,1011.02
2017-10-11T09:26:19.645Z,1011.06
2017-10-11T09:27:20.087Z,1011.05
2017-10-11T09:28:20.527Z,1011.08
2017-10-11T09:29:20.965Z,1011.04
2017-10-11T09:30:21.400Z,1011.04
2017-10-11T09:31:21.847Z,1011.05
2017-10-11T09:32:22.275Z,1011.08
2017-10-11T09:33:22.711Z,1011.11
2017-10-11T09:34:23.151Z,1011.08
2017-10-11T09:35:23.583Z,1011.04
2017-10-11T09:36:24.046Z,1011.07
2017-10-11T09:37:24.489Z,1011.06
2017-10-11T09:38:24.926Z,1011.09
2017-10-11T09:39:25.323Z,1011.12
2017-10-11T09:40:25.768Z,1011.15
2017-10-11T09:41:26.215Z,1011.12
2017-10-11T09:42:26.645Z,1011.12
2017-10-11T09:43:27.085Z,1011.14
2017-10-11T09:44:27.541Z,1011.15
2017-10-11T09:45:27.956Z,1011.12
2017-10-11T09:46:28.380Z,1011.17
2017-10-11T09:47:28.828Z,1011.13
2017-10-11T09:48:29.271Z,1011.16
2017-10-11T09:49:29.704Z,1011.18
2017-10-11T09:50:30.139Z,1011.18
2017-10-11T09:51:30.592Z,1011.16
2017-10-11T09:52:31.018Z,1011.12
2017-10-11T09:53:31.450Z,1011.09
2017-10-11T09:54:31.897Z,1011.14
2017-10-11T09:55:32.322Z,1011.15
2017-10-11T09:56:32.763Z,1011.12
2017-10-11T09:57:33.198Z,1011.19
2017-10-11T09:58:33.636Z,1011.17
2017-10-11T10:02:42.757Z,1011.28
2017-10-11T10:06:50.734Z,1011.23
2017-10-11T10:07:51.155Z,1011.25
2017-10-11T10:09:45.756Z,1011.28
2017-10-11T10:10:46.178Z,1011.24
2017-10-11T10:12:40.760Z,1011.27
2017-10-11T10:13:41.195Z,1011.28
2017-10-11T10:15:35.771Z,1011.27
2017-10-11T10:16:36.195Z,1011.30
2017-10-11T10:17:36.630Z,1011.26
2017-10-11T10:18:37.072Z,1011.28
2017-10-11T10:19:37.503Z,1011.31
2017-10-11T10:20:37.941Z,1011.32
2017-10-11T10:21:38.378Z,1011.37
2017-10-11T10:22:38.816Z,1011.33
2017-10-11T10:23:39.254Z,1011.36
2017-10-11T10:24:39.685Z,1011.35
2017-10-11T10:25:40.124Z,1011.32
2017-10-11T10:26:40.558Z,1011.30
2017-10-11T10:27:40.994Z,1011.35
2017-10-11T10:28:41.429Z,1011.30
2017-10-11T10:29:41.867Z,1011.31
2017-10-11T10:30:42.305Z,1011.34
2017-10-11T10:31:42.737Z,1011.29
2017-10-11T10:32:43.175Z,1011.26
2017-10-11T10:33:43.609Z,1011.24
2017-10-11T10:34:44.043Z,1011.33
2017-10-11T10:35:44.482Z,1011.28
2017-10-11T10:36:44.916Z,1011.33
2017-10-11T10:37:45.352Z,1011.34
2017-10-11T10:38:45.785Z,1011.30
2017-10-11T10:39:46.219Z,1011.27
2017-10-11T10:40:46.659Z,1011.27
2017-10-11T10:41:47.089Z,1011.28
2017-10-11T10:42:47.527Z,1011.26
2017-10-11T10:43:47.960Z,1011.25
2017-10-11T10:44:48.393Z,1011.20
2017-10-11T10:45:48.830Z,1011.22
2017-10-11T10:46:49.263Z,1011.19
2017-10-11T10:47:49.709Z,1011.16
2017-10-11T10:48:50.134Z,1011.22
2017-10-11T10:49:50.571Z,1011.22
2017-10-11T10:50:51.004Z,1011.21
2017-10-11T10:51:51.440Z,1011.26
2017-10-11T10:52:51.879Z,1011.26
2017-10-11T10:53:52.311Z,1011.27
2017-10-11T10:54:52.743Z,1011.20
2017-10-11T10:55:53.176Z,1011.20
2017-10-11T10:56:53.614Z,1011.21
2017-10-11T10:57:54.047Z,1011.28
2017-10-11T10:58:54.496Z,1011.19
2017-10-11T10:59:54.918Z,1011.20
2017-10-11T11:00:55.354Z,1011.24
2017-10-11T11:01:55.789Z,1011.20
2017-10-11T11:02:56.224Z,1011.23
2017-10-11T11:03:56.658Z,1011.29
2017-10-11T11:04:57.096Z,1011.25
2017-10-11T11:05:57.530Z,1011.26
2017-10-11T11:06:57.968Z,1011.24
2017-10-11T11:07:58.400Z,1011.26
2017-10-11T11:08:58.845Z,1011.37
2017-10-11T11:09:59.278Z,1011.27
2017-10-11T11:10:59.712Z,1011.27
2017-10-11T11:12:00.144Z,1011.27
2017-10-11T11:13:00.576Z,1011.30
2017-10-11T11:14:01.009Z,1011.31
2017-10-11T11:15:01.444Z,1011.32
2017-10-11T11:16:01.879Z,1011.29
2017-10-11T11:17:02.316Z,1011.33
2017-10-11T11:18:02.751Z,1011.30
2017-10-11T11:19:03.183Z,1011.36
2017-10-11T11:20:03.624Z,1011.32
2017-10-11T11:21:04.050Z,1011.35
2017-10-11T11:22:04.485Z,1011.34
2017-10-11T11:23:04.918Z,1011.30
2017-10-11T11:24:05.352Z,1011.32
2017-10-11T11:25:05.792Z,1011.28
2017-10-11T11:26:06.227Z,1011.28
2017-10-11T11:27:06.655Z,1011.35
2017-10-11T11:28:07.093Z,1011.30
2017-10-11T11:29:07.524Z,1011.29
2017-10-11T11:30:07.958Z,1011.27
2017-10-11T11:31:08.390Z,1011.32
2017-10-11T11:32:08.828Z,1011.29
2017-10-11T11:33:09.259Z,1011.34
2017-10-11T11:34:09.698Z,1011.36
2017-10-11T11:35:10.130Z,1011.33
2017-10-11T11:36:10.562Z,1011.26
2017-10-11T11:37:10.994Z,1011.32
2017-10-11T11:38:11.425Z,1011.30
2017-10-11T11:39:11.861Z,1011.32
2017-10-11T11:40:12.292Z,1011.28
2017-10-11T11:41:12.726Z,1011.30
2017-10-11T11:42:13.160Z,1011.27
2017-10-11T11:43:13.596Z,1011.31
2017-10-11T11:44:14.031Z,1011.25
2017-10-11T11:45:14.474Z,1011.25
2017-10-11T11:46:14.897Z,1011.32
2017-10-11T11:47:15.327Z,1011.26
2017-10-11T11:48:15.763Z,1011.27
2017-10-11T11:49:16.256Z,1011.27
2017-10-11T11:50:16.635Z,1011.25
2017-10-11T11:51:17.067Z,1011.25
2017-10-11T11:52:17.494Z,1011.24
2017-10-11T11:53:17.932Z,1011.19
2017-10-11T11:54:18.365Z,1011.21
2017-10-11T11:55:18.802Z,1011.19
2017-10-11T11:56:19.229Z,1011.21
2017-10-11T11:57:19.667Z,1011.24
2017-10-11T11:58:20.098Z,1011.22
2017-10-11T11:59:20.532Z,1011.22
2017-10-11T12:00:20.964Z,1011.23
2017-10-11T12:01:21.402Z,1011.26
2017-10-11T12:02:21.835Z,1011.20
2017-10-11T12:03:22.276Z,1011.19
2017-10-11T12:04:22.716Z,1011.17
2017-10-11T12:05:23.142Z,1011.16
2017-10-11T12:06:23.595Z,1011.17
2017-10-11T12:07:24.005Z,1011.17
2017-10-11T12:08:24.445Z,1011.11
2017-10-11T12:09:24.874Z,1011.16
2017-10-11T12:10:25.310Z,1011.12
2017-10-11T12:11:25.745Z,1011.11
2017-10-11T12:12:26.175Z,1011.12
2017-10-11T12:13:26.614Z,1011.13
2017-10-11T12:14:27.050Z,1011.14
2017-10-11T12:15:27.485Z,1011.13
2017-10-11T12:16:27.919Z,1011.16
2017-10-11T12:17:28.358Z,1011.12
2017-10-11T12:18:28.791Z,1011.16
2017-10-11T12:19:29.231Z,1011.16
2017-10-11T12:20:29.665Z,1011.14
2017-10-11T12:21:30.103Z,1011.16
2017-10-11T12:22:30.538Z,1011.09
2017-10-11T12:23:30.973Z,1011.11
2017-10-11T12:24:31.412Z,1011.17
2017-10-11T12:25:31.846Z,1011.17
2017-10-11T12:26:32.283Z,1011.17
2017-10-11T12:27:32.721Z,1011.16
2017-10-11T12:28:33.162Z,1011.19
2017-10-11T12:29:33.592Z,1011.18
2017-10-11T12:30:34.028Z,1011.15
2017-10-11T12:31:34.468Z,1011.16
2017-10-11T12:32:34.902Z,1011.18
2017-10-11T12:33:35.335Z,1011.22
2017-10-11T12:34:35.775Z,1011.14
2017-10-11T12:35:36.212Z,1011.14
2017-10-11T12:36:36.664Z,1011.19
2017-10-11T12:37:37.084Z,1011.15
2017-10-11T12:38:37.514Z,1011.13
2017-10-11T12:39:37.953Z,1011.13
2017-10-11T12:40:38.394Z,1011.13
2017-10-11T12:41:38.827Z,1011.18
2017-10-11T12:42:39.258Z,1011.16
2017-10-11T12:43:39.694Z,1011.12
2017-10-11T12:44:40.130Z,1011.16